Time;durP1;ratioP1;P1;durP2;ratioP2;P2;SDS_P1;SDS_P2;PMS_P1;PMS_P2;Temp;Humidity;BMP_temperature;BMP_pressure;BME280_temperature;BME280_humidity;BME280_pressure;Samples;Min_cycle;Max_cycle;Signal;HPM_P1;HPM_P2
2021/06/04 00:02:08;;;;;;;9.50;8.20;;;;;;;;;;744777;187;918867;-74
2021/06/04 00:04:34;;;;;;;10.93;9.00;;;;;;;;;;748302;184;816570;-73
2021/06/04 00:07:00;;;;;;;11.97;8.40;;;;;;;;;;747801;186;918206;-74
2021/06/04 00:09:26;;;;;;;12.07;8.53;;;;;;;;;;737768;187;919665;-73
2021/06/04 00:11:51;;;;;;;11.57;9.10;;;;;;;;;;745043;186;917989;-74
2021/06/04 00:14:17;;;;;;;16.40;8.70;;;;;;;;;;738758;187;917763;-74
2021/06/04 00:16:58;;;;;;;12.53;8.77;;;;;;;;;;738227;187;918493;-74
2021/06/04 00:19:25;;;;;;;9.60;8.18;;;;;;;;;;737633;187;1019470;-73
2021/06/04 00:21:50;;;;;;;13.10;9.23;;;;;;;;;;747681;187;1207630;-73
2021/06/04 00:24:16;;;;;;;11.80;9.73;;;;;;;;;;742784;187;913574;-73
2021/06/04 00:26:41;;;;;;;12.43;10.03;;;;;;;;;;739874;187;918180;-73
2021/06/04 00:29:07;;;;;;;9.97;8.20;;;;;;;;;;746937;187;812416;-73
2021/06/04 00:31:33;;;;;;;10.27;7.40;;;;;;;;;;745920;187;918674;-73
2021/06/04 00:33:59;;;;;;;8.40;7.40;;;;;;;;;;740889;187;918948;-73
2021/06/04 00:36:25;;;;;;;7.93;7.10;;;;;;;;;;744308;187;914489;-73
2021/06/04 00:38:53;;;;;;;11.27;9.57;;;;;;;;;;740739;187;915839;-74
2021/06/04 00:41:19;;;;;;;10.13;8.83;;;;;;;;;;745793;187;941945;-73
2021/06/04 00:43:45;;;;;;;10.30;8.60;;;;;;;;;;739336;187;978339;-73
2021/06/04 00:46:10;;;;;;;9.83;8.70;;;;;;;;;;739991;187;914948;-72
2021/06/04 00:48:36;;;;;;;13.27;9.23;;;;;;;;;;739087;187;915720;-72
2021/06/04 00:51:05;;;;;;;9.38;8.15;;;;;;;;;;741070;186;912276;-72
2021/06/04 00:53:31;;;;;;;10.83;8.97;;;;;;;;;;744508;186;910978;-74
2021/06/04 00:55:56;;;;;;;11.37;9.10;;;;;;;;;;741770;186;908014;-74
2021/06/04 00:58:22;;;;;;;13.70;9.40;;;;;;;;;;743611;186;1174086;-74
2021/06/04 01:00:50;;;;;;;9.30;8.32;;;;;;;;;;743589;186;938157;-73
2021/06/04 01:03:14;;;;;;;11.07;8.87;;;;;;;;;;749678;184;919417;-73
2021/06/04 01:05:40;;;;;;;15.05;10.20;;;;;;;;;;737281;186;911702;-73
2021/06/04 01:08:12;;;;;;;10.90;9.80;;;;;;;;;;749699;186;821148;-74
2021/06/04 01:10:43;;;;;;;9.90;8.77;;;;;;;;;;754453;186;817667;-74
2021/06/04 01:13:12;;;;;;;10.13;9.03;;;;;;;;;;748650;186;877510;-73
2021/06/04 01:15:54;;;;;;;10.85;9.68;;;;;;;;;;736589;186;1271510;-75
2021/06/04 01:18:25;;;;;;;10.73;8.77;;;;;;;;;;736086;186;915122;-74
2021/06/04 01:20:51;;;;;;;11.63;9.63;;;;;;;;;;748727;186;907272;-74
2021/06/04 01:23:23;;;;;;;10.83;9.03;;;;;;;;;;745822;186;912517;-73
2021/06/04 01:25:51;;;;;;;12.37;10.17;;;;;;;;;;742290;187;907367;-74
2021/06/04 01:28:32;;;;;;;12.40;8.80;;;;;;;;;;740396;187;885305;-74
2021/06/04 01:31:02;;;;;;;11.40;10.10;;;;;;;;;;741679;187;919694;-74
2021/06/04 01:33:29;;;;;;;12.27;8.50;;;;;;;;;;742317;187;807464;-74
2021/06/04 01:35:55;;;;;;;10.77;9.50;;;;;;;;;;746409;187;798459;-74
2021/06/04 01:38:21;;;;;;;10.90;9.33;;;;;;;;;;742195;187;911362;-74
2021/06/04 01:40:48;;;;;;;11.35;9.15;;;;;;;;;;744259;187;878662;-73
2021/06/04 01:43:12;;;;;;;10.63;9.30;;;;;;;;;;747962;187;810311;-74
2021/06/04 01:45:38;;;;;;;12.23;10.43;;;;;;;;;;742432;187;918023;-74
2021/06/04 01:48:10;;;;;;;13.80;11.63;;;;;;;;;;745650;187;918183;-74
2021/06/04 01:50:34;;;;;;;12.30;9.77;;;;;;;;;;745254;187;919039;-74
2021/06/04 01:53:00;;;;;;;11.17;9.47;;;;;;;;;;747556;187;919437;-74
2021/06/04 01:55:26;;;;;;;11.60;10.40;;;;;;;;;;742700;187;910242;-74
2021/06/04 01:57:51;;;;;;;13.40;10.80;;;;;;;;;;749376;187;910332;-73
2021/06/04 02:00:18;;;;;;;12.40;9.27;;;;;;;;;;752561;184;914262;-73
2021/06/04 02:02:44;;;;;;;12.40;9.77;;;;;;;;;;752879;186;909892;-74
2021/06/04 02:05:10;;;;;;;11.03;9.10;;;;;;;;;;747281;186;918825;-74
2021/06/04 02:07:36;;;;;;;12.63;9.37;;;;;;;;;;742233;186;891392;-74
2021/06/04 02:10:02;;;;;;;11.52;9.40;;;;;;;;;;748836;186;815134;-74
2021/06/04 02:12:28;;;;;;;16.47;12.37;;;;;;;;;;743203;186;914824;-74
2021/06/04 02:14:56;;;;;;;14.67;12.90;;;;;;;;;;745323;186;839654;-74
2021/06/04 02:17:26;;;;;;;23.23;13.88;;;;;;;;;;742368;186;918712;-74
2021/06/04 02:20:08;;;;;;;18.40;14.80;;;;;;;;;;745277;186;852991;-74
2021/06/04 02:22:55;;;;;;;22.00;15.80;;;;;;;;;;735899;187;914264;-74
2021/06/04 02:25:21;;;;;;;12.93;11.53;;;;;;;;;;751159;186;918450;-73
2021/06/04 02:27:47;;;;;;;10.60;9.37;;;;;;;;;;741700;186;812180;-74
2021/06/04 02:30:21;;;;;;;14.45;10.13;;;;;;;;;;740039;186;915437;-74
2021/06/04 02:33:01;;;;;;;14.57;9.70;;;;;;;;;;739408;186;912342;-74
2021/06/04 02:35:27;;;;;;;14.43;9.93;;;;;;;;;;737769;187;814077;-73
2021/06/04 02:37:54;;;;;;;12.87;10.33;;;;;;;;;;740837;186;814349;-75
2021/06/04 02:40:21;;;;;;;11.87;8.87;;;;;;;;;;744917;187;916989;-74
2021/06/04 02:42:48;;;;;;;12.37;9.43;;;;;;;;;;744118;187;914852;-75
2021/06/04 02:45:18;;;;;;;15.00;11.50;;;;;;;;;;746638;187;811654;-74
2021/06/04 02:47:43;;;;;;;10.40;9.07;;;;;;;;;;737805;187;914977;-74
2021/06/04 02:50:09;;;;;;;10.60;8.90;;;;;;;;;;740942;187;919894;-74
2021/06/04 02:52:35;;;;;;;10.23;8.30;;;;;;;;;;747114;187;921566;-74
2021/06/04 02:55:01;;;;;;;11.67;9.87;;;;;;;;;;739360;187;911757;-74
2021/06/04 02:57:27;;;;;;;11.50;8.23;;;;;;;;;;740040;187;811961;-73
2021/06/04 02:59:53;;;;;;;11.07;8.60;;;;;;;;;;742207;187;914824;-74
2021/06/04 03:02:19;;;;;;;10.90;8.73;;;;;;;;;;744257;187;814618;-74
2021/06/04 03:04:45;;;;;;;11.93;8.90;;;;;;;;;;743197;187;945293;-74
2021/06/04 03:07:12;;;;;;;15.57;10.10;;;;;;;;;;742654;187;912206;-74
2021/06/04 03:09:38;;;;;;;12.60;10.20;;;;;;;;;;748028;187;914187;-74
2021/06/04 03:12:04;;;;;;;24.90;11.00;;;;;;;;;;740348;187;920205;-73
2021/06/04 03:14:30;;;;;;;14.60;9.00;;;;;;;;;;743916;186;920199;-75
2021/06/04 03:16:56;;;;;;;14.30;10.53;;;;;;;;;;748293;186;908340;-74
2021/06/04 03:19:22;;;;;;;16.00;11.90;;;;;;;;;;739162;186;1014610;-74
2021/06/04 03:21:51;;;;;;;19.23;12.23;;;;;;;;;;737392;186;912691;-74
2021/06/04 03:24:17;;;;;;;14.80;12.37;;;;;;;;;;742678;186;911275;-74
2021/06/04 03:26:43;;;;;;;17.50;13.27;;;;;;;;;;750896;186;912001;-75
2021/06/04 03:29:08;;;;;;;19.37;14.77;;;;;;;;;;747656;186;865771;-74
2021/06/04 03:31:34;;;;;;;21.53;16.00;;;;;;;;;;739024;186;910631;-75
2021/06/04 03:34:00;;;;;;;22.97;16.30;;;;;;;;;;745508;186;911566;-75
2021/06/04 03:36:26;;;;;;;22.63;18.17;;;;;;;;;;747593;186;911886;-75
2021/06/04 03:38:52;;;;;;;21.03;16.80;;;;;;;;;;743648;186;911363;-75
2021/06/04 03:41:18;;;;;;;29.97;18.40;;;;;;;;;;749046;186;927154;-75
2021/06/04 03:43:43;;;;;;;25.70;18.23;;;;;;;;;;742941;187;911966;-74
2021/06/04 03:46:09;;;;;;;25.83;17.63;;;;;;;;;;741906;186;911491;-75
2021/06/04 03:48:35;;;;;;;21.63;16.20;;;;;;;;;;742018;187;913573;-75
2021/06/04 03:51:01;;;;;;;24.60;19.33;;;;;;;;;;740222;187;912945;-74
2021/06/04 03:53:27;;;;;;;22.10;16.10;;;;;;;;;;742819;187;911975;-75
2021/06/04 03:55:53;;;;;;;22.85;16.45;;;;;;;;;;741618;187;1190759;-74
2021/06/04 03:58:18;;;;;;;19.87;15.63;;;;;;;;;;750064;187;912932;-75
2021/06/04 04:00:45;;;;;;;19.07;15.67;;;;;;;;;;743119;187;913920;-74
2021/06/04 04:03:11;;;;;;;24.77;15.90;;;;;;;;;;740416;187;918886;-74
2021/06/04 04:05:37;;;;;;;21.50;15.60;;;;;;;;;;750406;187;918505;-75
2021/06/04 04:08:03;;;;;;;25.47;16.50;;;;;;;;;;737511;187;913238;-75
2021/06/04 04:10:29;;;;;;;22.83;15.60;;;;;;;;;;737740;187;902669;-75
2021/06/04 04:12:55;;;;;;;23.27;17.70;;;;;;;;;;741137;187;1020691;-75
2021/06/04 04:15:21;;;;;;;19.20;14.57;;;;;;;;;;755090;184;913546;-75
2021/06/04 04:17:46;;;;;;;20.63;14.80;;;;;;;;;;741162;188;912534;-75
2021/06/04 04:20:15;;;;;;;21.87;15.17;;;;;;;;;;739294;187;858796;-75
2021/06/04 04:22:41;;;;;;;20.70;14.83;;;;;;;;;;743489;187;919172;-75
2021/06/04 04:25:07;;;;;;;17.63;13.40;;;;;;;;;;745448;186;855865;-75
2021/06/04 04:27:33;;;;;;;17.80;13.60;;;;;;;;;;742267;186;928558;-75
2021/06/04 04:29:59;;;;;;;20.50;14.37;;;;;;;;;;749011;186;917869;-75
2021/06/04 04:32:24;;;;;;;17.47;12.20;;;;;;;;;;742730;186;1227110;-75
2021/06/04 04:34:50;;;;;;;18.83;13.90;;;;;;;;;;744809;186;789334;-75
2021/06/04 04:37:16;;;;;;;21.00;15.00;;;;;;;;;;742837;186;807829;-76
2021/06/04 04:39:42;;;;;;;16.67;13.37;;;;;;;;;;744629;186;912372;-75
2021/06/04 04:42:08;;;;;;;17.30;12.85;;;;;;;;;;747250;186;918569;-76
2021/06/04 04:44:34;;;;;;;23.53;12.97;;;;;;;;;;745111;186;617201;-75
2021/06/04 04:47:00;;;;;;;23.67;13.10;;;;;;;;;;744454;186;811248;-75
2021/06/04 04:49:25;;;;;;;16.20;13.23;;;;;;;;;;749183;186;955399;-76
2021/06/04 04:51:51;;;;;;;21.87;13.53;;;;;;;;;;745465;186;628083;-75
2021/06/04 04:54:17;;;;;;;18.77;11.47;;;;;;;;;;751927;187;634851;-75
2021/06/04 04:56:43;;;;;;;15.27;11.30;;;;;;;;;;741402;187;719116;-76
2021/06/04 04:59:09;;;;;;;16.05;10.80;;;;;;;;;;742745;187;715201;-73
2021/06/04 05:01:35;;;;;;;18.27;12.53;;;;;;;;;;745235;187;619448;-74
2021/06/04 05:04:01;;;;;;;15.43;11.27;;;;;;;;;;748606;187;917549;-75
2021/06/04 05:06:27;;;;;;;15.50;11.90;;;;;;;;;;744192;187;819482;-75
2021/06/04 05:08:53;;;;;;;18.90;13.07;;;;;;;;;;742991;187;1124745;-75
2021/06/04 05:11:19;;;;;;;15.67;10.90;;;;;;;;;;743653;187;818188;-76
2021/06/04 05:13:45;;;;;;;16.37;11.10;;;;;;;;;;737180;187;916702;-76
2021/06/04 05:16:11;;;;;;;17.10;11.77;;;;;;;;;;743706;187;1123698;-76
2021/06/04 05:18:36;;;;;;;15.00;10.77;;;;;;;;;;746614;187;887581;-77
2021/06/04 05:21:02;;;;;;;14.03;11.17;;;;;;;;;;744607;187;918782;-76
2021/06/04 05:23:28;;;;;;;16.73;10.90;;;;;;;;;;749542;187;636333;-75
2021/06/04 05:25:54;;;;;;;18.70;11.20;;;;;;;;;;750040;185;649354;-76
2021/06/04 05:28:20;;;;;;;13.67;10.70;;;;;;;;;;752648;187;624211;-77
2021/06/04 05:30:46;;;;;;;14.53;10.63;;;;;;;;;;740731;187;918461;-77
2021/06/04 05:33:11;;;;;;;13.90;9.83;;;;;;;;;;740153;187;917945;-76
2021/06/04 05:35:37;;;;;;;15.90;10.57;;;;;;;;;;745876;184;917676;-77
2021/06/04 05:38:03;;;;;;;13.20;9.50;;;;;;;;;;745221;186;918231;-76
2021/06/04 05:40:29;;;;;;;15.67;11.20;;;;;;;;;;743691;186;919436;-77
2021/06/04 05:42:55;;;;;;;17.57;9.30;;;;;;;;;;753348;186;814753;-77
2021/06/04 05:45:21;;;;;;;12.63;9.10;;;;;;;;;;746783;186;917852;-77
2021/06/04 05:47:47;;;;;;;9.57;8.50;;;;;;;;;;739641;186;1364082;-77
2021/06/04 05:50:14;;;;;;;11.37;8.30;;;;;;;;;;747029;186;917071;-77
2021/06/04 05:52:38;;;;;;;14.45;9.18;;;;;;;;;;741993;186;1022674;-76
2021/06/04 05:55:05;;;;;;;14.43;8.93;;;;;;;;;;741360;187;921835;-76
2021/06/04 05:57:30;;;;;;;11.80;8.90;;;;;;;;;;741242;186;818047;-76
2021/06/04 05:59:56;;;;;;;10.93;8.53;;;;;;;;;;739750;184;916807;-76
2021/06/04 06:02:22;;;;;;;11.60;7.60;;;;;;;;;;747305;186;918986;-76
2021/06/04 06:04:48;;;;;;;11.03;8.03;;;;;;;;;;742343;186;919329;-76
2021/06/04 06:07:14;;;;;;;12.43;8.13;;;;;;;;;;748187;186;1008801;-76
2021/06/04 06:09:40;;;;;;;12.00;9.00;;;;;;;;;;742235;186;919142;-76
2021/06/04 06:12:06;;;;;;;11.65;9.15;;;;;;;;;;741651;186;862945;-76
2021/06/04 06:14:32;;;;;;;14.53;10.47;;;;;;;;;;743361;187;918637;-77
2021/06/04 06:16:57;;;;;;;11.50;9.57;;;;;;;;;;741687;187;920065;-77
2021/06/04 06:19:23;;;;;;;16.10;10.07;;;;;;;;;;741097;187;915980;-77
2021/06/04 06:21:50;;;;;;;19.20;11.10;;;;;;;;;;746328;187;812277;-78
2021/06/04 06:24:15;;;;;;;18.73;10.70;;;;;;;;;;740250;187;915142;-78
2021/06/04 06:26:41;;;;;;;13.02;9.45;;;;;;;;;;735761;187;920131;-77
2021/06/04 06:29:07;;;;;;;19.33;10.30;;;;;;;;;;738202;187;913804;-77
2021/06/04 06:31:32;;;;;;;16.30;9.83;;;;;;;;;;745481;187;915194;-76
2021/06/04 06:33:58;;;;;;;13.97;10.43;;;;;;;;;;749140;187;814732;-77
2021/06/04 06:36:27;;;;;;;14.93;11.13;;;;;;;;;;742298;187;916204;-77
2021/06/04 06:38:50;;;;;;;16.50;11.13;;;;;;;;;;748101;187;609594;-77
2021/06/04 06:41:16;;;;;;;18.90;10.13;;;;;;;;;;743600;187;817625;-76
2021/06/04 06:43:44;;;;;;;13.23;10.23;;;;;;;;;;746295;187;915098;-77
2021/06/04 06:46:07;;;;;;;13.33;9.50;;;;;;;;;;742309;187;816165;-77
2021/06/04 06:48:33;;;;;;;22.70;13.97;;;;;;;;;;744425;186;916700;-76
2021/06/04 06:51:00;;;;;;;11.83;8.20;;;;;;;;;;741093;186;884872;-77
2021/06/04 06:53:25;;;;;;;16.70;8.97;;;;;;;;;;744106;186;916920;-77
2021/06/04 06:55:51;;;;;;;15.30;9.20;;;;;;;;;;745726;186;817029;-77
2021/06/04 06:58:17;;;;;;;9.47;7.93;;;;;;;;;;743397;186;918161;-77
2021/06/04 07:00:42;;;;;;;26.83;9.10;;;;;;;;;;742739;186;918486;-77
2021/06/04 07:03:08;;;;;;;17.13;8.50;;;;;;;;;;755850;186;917328;-78
2021/06/04 07:05:34;;;;;;;11.50;8.70;;;;;;;;;;748793;186;916655;-76
2021/06/04 07:08:00;;;;;;;15.50;7.57;;;;;;;;;;740702;186;890113;-78
2021/06/04 07:10:27;;;;;;;12.83;8.13;;;;;;;;;;746462;186;915590;-78
2021/06/04 07:12:52;;;;;;;12.60;7.60;;;;;;;;;;738186;186;920145;-77
2021/06/04 07:15:18;;;;;;;13.07;8.20;;;;;;;;;;741739;187;920994;-77
2021/06/04 07:17:44;;;;;;;15.97;7.33;;;;;;;;;;748391;186;777518;-79
2021/06/04 07:20:09;;;;;;;10.60;7.13;;;;;;;;;;748435;186;917167;-78
2021/06/04 07:22:35;;;;;;;11.87;7.47;;;;;;;;;;742254;186;919255;-78
2021/06/04 07:25:01;;;;;;;9.23;7.07;;;;;;;;;;739844;187;1534788;-76
2021/06/04 07:27:27;;;;;;;13.10;8.00;;;;;;;;;;749058;187;918040;-77
2021/06/04 07:29:53;;;;;;;16.60;7.67;;;;;;;;;;745357;187;918496;-76
2021/06/04 07:32:19;;;;;;;9.82;6.95;;;;;;;;;;738662;187;1019034;-77
2021/06/04 07:34:45;;;;;;;10.90;6.10;;;;;;;;;;744011;187;918542;-78
2021/06/04 07:37:10;;;;;;;8.23;5.90;;;;;;;;;;739655;187;920179;-76
2021/06/04 07:39:38;;;;;;;9.13;6.10;;;;;;;;;;742182;187;917437;-78
2021/06/04 07:42:02;;;;;;;7.83;6.10;;;;;;;;;;743560;187;929138;-78
2021/06/04 07:44:28;;;;;;;9.33;6.30;;;;;;;;;;741150;187;815570;-77
2021/06/04 07:46:54;;;;;;;7.82;5.65;;;;;;;;;;741066;187;866005;-78
2021/06/04 07:49:20;;;;;;;8.60;5.77;;;;;;;;;;742556;187;922434;-78
2021/06/04 07:51:46;;;;;;;11.97;6.47;;;;;;;;;;747600;184;750399;-78
2021/06/04 07:54:12;;;;;;;8.63;5.50;;;;;;;;;;737247;187;905135;-78
2021/06/04 07:56:38;;;;;;;10.23;6.90;;;;;;;;;;738456;187;918807;-78
2021/06/04 07:59:04;;;;;;;20.53;6.90;;;;;;;;;;747824;186;919159;-77
2021/06/04 08:01:30;;;;;;;8.77;6.13;;;;;;;;;;750154;186;915583;-77
2021/06/04 08:03:56;;;;;;;13.70;7.00;;;;;;;;;;744462;186;1023574;-78
2021/06/04 08:06:22;;;;;;;10.20;6.40;;;;;;;;;;747610;186;917941;-77
2021/06/04 08:08:53;;;;;;;11.90;6.33;;;;;;;;;;750317;186;918384;-77
2021/06/04 08:11:17;;;;;;;18.93;6.13;;;;;;;;;;746100;186;815639;-78
2021/06/04 08:13:45;;;;;;;9.40;6.07;;;;;;;;;;744152;186;918397;-77
2021/06/04 08:16:10;;;;;;;11.70;5.57;;;;;;;;;;750848;186;816056;-78
2021/06/04 08:18:34;;;;;;;9.23;6.03;;;;;;;;;;741173;187;1018293;-78
2021/06/04 08:21:00;;;;;;;16.00;6.30;;;;;;;;;;741424;186;916544;-77
2021/06/04 08:23:27;;;;;;;6.87;5.77;;;;;;;;;;744724;186;918841;-78
2021/06/04 08:25:54;;;;;;;7.90;5.53;;;;;;;;;;739876;186;914872;-78
2021/06/04 08:28:19;;;;;;;5.53;5.00;;;;;;;;;;739994;186;915766;-77
2021/06/04 08:30:45;;;;;;;9.17;5.23;;;;;;;;;;750702;186;920166;-79
2021/06/04 08:33:10;;;;;;;7.43;5.67;;;;;;;;;;738754;186;937531;-79
2021/06/04 08:35:36;;;;;;;11.23;5.20;;;;;;;;;;740650;186;919113;-78
2021/06/04 08:38:02;;;;;;;8.50;5.53;;;;;;;;;;747362;187;917853;-78
2021/06/04 08:40:29;;;;;;;8.90;6.40;;;;;;;;;;736178;190;917050;-78
2021/06/04 08:43:09;;;;;;;8.03;5.03;;;;;;;;;;738362;187;921661;-78
2021/06/04 08:45:37;;;;;;;6.90;5.57;;;;;;;;;;742287;186;918632;-77
2021/06/04 08:48:04;;;;;;;7.40;4.93;;;;;;;;;;736849;187;942544;-79
2021/06/04 08:50:31;;;;;;;6.67;4.93;;;;;;;;;;745899;187;917112;-78
2021/06/04 08:53:10;;;;;;;15.07;6.80;;;;;;;;;;740309;187;918608;-78
2021/06/04 08:55:37;;;;;;;8.95;5.55;;;;;;;;;;737123;187;918356;-79
2021/06/04 08:58:06;;;;;;;7.43;4.50;;;;;;;;;;738581;187;917237;-78
2021/06/04 09:00:31;;;;;;;13.30;4.43;;;;;;;;;;750707;187;817321;-79
2021/06/04 09:03:02;;;;;;;7.67;4.73;;;;;;;;;;734222;187;837560;-79
2021/06/04 09:05:29;;;;;;;6.13;4.10;;;;;;;;;;748510;187;914613;-79
2021/06/04 09:07:54;;;;;;;7.95;5.30;;;;;;;;;;740538;187;919349;-79
2021/06/04 09:10:25;;;;;;;6.20;5.00;;;;;;;;;;750957;186;851609;-79
2021/06/04 09:13:02;;;;;;;5.73;4.20;;;;;;;;;;749786;186;918264;-80
2021/06/04 09:15:28;;;;;;;8.80;6.07;;;;;;;;;;743856;186;814614;-78
2021/06/04 09:17:57;;;;;;;7.47;4.60;;;;;;;;;;740165;186;923604;-78
2021/06/04 09:20:26;;;;;;;7.43;4.22;;;;;;;;;;743106;186;918603;-79
2021/06/04 09:22:52;;;;;;;6.70;5.23;;;;;;;;;;747770;184;919577;-78
2021/06/04 09:25:18;;;;;;;8.33;4.23;;;;;;;;;;743794;186;919073;-79
2021/06/04 09:27:45;;;;;;;7.50;4.37;;;;;;;;;;741102;186;917807;-79
2021/06/04 09:30:15;;;;;;;6.23;4.30;;;;;;;;;;750312;186;941895;-79
2021/06/04 09:32:41;;;;;;;7.77;4.53;;;;;;;;;;744813;186;796224;-78
2021/06/04 09:35:08;;;;;;;7.10;4.60;;;;;;;;;;752152;186;902352;-79
2021/06/04 09:37:37;;;;;;;5.80;3.90;;;;;;;;;;740214;186;926517;-78
2021/06/04 09:40:09;;;;;;;7.40;4.37;;;;;;;;;;746290;186;915560;-79
2021/06/04 09:42:35;;;;;;;6.57;4.00;;;;;;;;;;740248;186;882448;-76
2021/06/04 09:45:01;;;;;;;6.60;4.70;;;;;;;;;;744812;186;929463;-79
2021/06/04 09:47:27;;;;;;;11.48;4.30;;;;;;;;;;743655;187;918965;-79
2021/06/04 09:49:53;;;;;;;7.67;5.10;;;;;;;;;;744042;187;914846;-77
2021/06/04 09:52:19;;;;;;;7.07;4.50;;;;;;;;;;740770;187;813911;-78
2021/06/04 09:54:45;;;;;;;6.23;3.93;;;;;;;;;;737185;187;904924;-78
2021/06/04 09:57:11;;;;;;;8.70;4.00;;;;;;;;;;747100;187;818494;-78
2021/06/04 09:59:37;;;;;;;9.60;4.07;;;;;;;;;;732442;187;1171844;-78
2021/06/04 10:02:02;;;;;;;8.10;4.40;;;;;;;;;;738785;187;1020210;-79
2021/06/04 10:04:30;;;;;;;9.73;4.60;;;;;;;;;;744089;187;919203;-79
2021/06/04 10:07:00;;;;;;;7.60;4.03;;;;;;;;;;746809;187;924240;-79
2021/06/04 10:09:26;;;;;;;10.00;4.23;;;;;;;;;;745240;187;918838;-78
2021/06/04 10:11:51;;;;;;;7.70;4.73;;;;;;;;;;741541;187;815318;-79
2021/06/04 10:14:26;;;;;;;9.37;3.83;;;;;;;;;;750557;187;919072;-79
2021/06/04 10:17:02;;;;;;;6.17;4.80;;;;;;;;;;743524;187;921220;-78
2021/06/04 10:19:34;;;;;;;14.53;4.20;;;;;;;;;;743660;187;885002;-78
2021/06/04 10:22:17;;;;;;;7.37;4.17;;;;;;;;;;748703;186;918945;-79
2021/06/04 10:24:45;;;;;;;10.03;4.20;;;;;;;;;;744090;186;920477;-78
2021/06/04 10:27:11;;;;;;;5.33;4.37;;;;;;;;;;747835;186;878995;-78
2021/06/04 10:29:37;;;;;;;7.33;4.10;;;;;;;;;;750091;184;761350;-79
2021/06/04 10:32:10;;;;;;;6.70;3.80;;;;;;;;;;745739;186;917530;-79
2021/06/04 10:34:42;;;;;;;5.10;4.12;;;;;;;;;;741721;186;1429702;-79
2021/06/04 10:37:08;;;;;;;7.13;4.37;;;;;;;;;;740261;186;917493;-78
2021/06/04 10:39:36;;;;;;;7.27;4.20;;;;;;;;;;744340;186;884538;-79
2021/06/04 10:42:07;;;;;;;6.03;4.40;;;;;;;;;;739993;186;919083;-80
2021/06/04 10:44:35;;;;;;;6.57;3.25;;;;;;;;;;743521;186;1021095;-80
2021/06/04 10:47:00;;;;;;;7.57;4.97;;;;;;;;;;743422;186;917720;-80
2021/06/04 10:49:32;;;;;;;13.53;4.83;;;;;;;;;;738388;186;815036;-78
2021/06/04 10:51:57;;;;;;;6.10;4.30;;;;;;;;;;737869;186;1634527;-79
2021/06/04 10:54:25;;;;;;;9.90;4.37;;;;;;;;;;738440;187;822528;-79
2021/06/04 10:56:57;;;;;;;7.17;4.00;;;;;;;;;;744316;186;904022;-79
2021/06/04 10:59:29;;;;;;;5.43;4.00;;;;;;;;;;744659;187;814076;-80
2021/06/04 11:01:56;;;;;;;4.43;3.50;;;;;;;;;;742349;187;922058;-78
2021/06/04 11:04:21;;;;;;;5.37;4.63;;;;;;;;;;739696;187;919159;-79
2021/06/04 11:07:03;;;;;;;7.20;4.20;;;;;;;;;;744328;187;1018616;-79
2021/06/04 11:09:34;;;;;;;7.30;4.60;;;;;;;;;;742402;187;1020559;-78
2021/06/04 11:12:04;;;;;;;6.73;4.80;;;;;;;;;;743727;187;1200841;-80
2021/06/04 11:14:36;;;;;;;6.53;3.93;;;;;;;;;;741104;187;841109;-79
2021/06/04 11:17:03;;;;;;;6.50;4.47;;;;;;;;;;745959;187;903140;-79
2021/06/04 11:19:29;;;;;;;5.93;4.63;;;;;;;;;;741425;187;837374;-79
2021/06/04 11:21:55;;;;;;;8.63;4.60;;;;;;;;;;739899;187;917546;-78
2021/06/04 11:24:34;;;;;;;6.90;4.10;;;;;;;;;;741293;187;897120;-78
2021/06/04 11:27:00;;;;;;;8.37;4.70;;;;;;;;;;747641;187;895185;-78
2021/06/04 11:29:27;;;;;;;14.27;5.50;;;;;;;;;;747132;187;807962;-79
2021/06/04 11:32:12;;;;;;;6.83;3.80;;;;;;;;;;746449;187;862273;-79
2021/06/04 11:34:35;;;;;;;5.87;4.37;;;;;;;;;;752884;186;885789;-78
2021/06/04 11:37:01;;;;;;;7.93;4.63;;;;;;;;;;744927;186;984140;-79
2021/06/04 11:39:31;;;;;;;9.90;4.53;;;;;;;;;;744762;186;916585;-79
2021/06/04 11:41:56;;;;;;;4.73;3.73;;;;;;;;;;745332;186;628834;-79
2021/06/04 11:44:24;;;;;;;7.53;3.90;;;;;;;;;;740170;186;933805;-78
2021/06/04 11:46:56;;;;;;;5.90;4.30;;;;;;;;;;739311;186;915310;-78
2021/06/04 11:49:22;;;;;;;7.72;4.85;;;;;;;;;;743058;186;1342475;-77
2021/06/04 11:51:50;;;;;;;11.40;4.53;;;;;;;;;;749250;186;792605;-78
2021/06/04 11:54:15;;;;;;;4.90;4.13;;;;;;;;;;744657;187;653612;-78
2021/06/04 11:56:41;;;;;;;7.13;4.23;;;;;;;;;;747543;186;636896;-78
2021/06/04 11:59:07;;;;;;;7.47;4.47;;;;;;;;;;746071;186;911833;-78
2021/06/04 12:01:34;;;;;;;7.20;5.23;;;;;;;;;;749435;186;625332;-78
2021/06/04 12:04:03;;;;;;;8.40;4.20;;;;;;;;;;744044;186;634190;-79
2021/06/04 12:06:29;;;;;;;6.07;4.00;;;;;;;;;;746479;186;713357;-78
2021/06/04 12:08:55;;;;;;;8.13;4.50;;;;;;;;;;750339;186;641075;-79
2021/06/04 12:11:23;;;;;;;6.77;5.60;;;;;;;;;;743731;187;645579;-78
2021/06/04 12:14:04;;;;;;;10.73;4.37;;;;;;;;;;744499;187;623610;-78
2021/06/04 12:16:32;;;;;;;7.43;5.30;;;;;;;;;;733665;189;918025;-78
2021/06/04 12:19:04;;;;;;;9.00;5.13;;;;;;;;;;744525;187;687143;-78
2021/06/04 12:21:36;;;;;;;6.33;4.57;;;;;;;;;;747241;187;626253;-78
2021/06/04 12:24:02;;;;;;;5.40;4.40;;;;;;;;;;743450;186;891826;-79
2021/06/04 12:26:30;;;;;;;5.17;4.20;;;;;;;;;;742972;187;877621;-78
2021/06/04 12:28:56;;;;;;;8.30;5.20;;;;;;;;;;744063;187;698483;-78
2021/06/04 12:31:29;;;;;;;4.87;4.37;;;;;;;;;;743505;187;651939;-78
2021/06/04 12:33:56;;;;;;;5.27;4.37;;;;;;;;;;743304;187;809792;-78
2021/06/04 12:36:27;;;;;;;6.37;4.45;;;;;;;;;;743783;187;812504;-78
2021/06/04 12:38:53;;;;;;;5.47;3.80;;;;;;;;;;745091;187;915145;-79
2021/06/04 12:41:19;;;;;;;5.80;4.70;;;;;;;;;;751889;187;662069;-79
2021/06/04 12:43:45;;;;;;;4.77;4.00;;;;;;;;;;744992;187;628760;-80
2021/06/04 12:46:13;;;;;;;9.90;5.20;;;;;;;;;;743001;186;919228;-79
2021/06/04 12:48:40;;;;;;;7.03;4.20;;;;;;;;;;746263;186;861126;-81
2021/06/04 12:51:05;;;;;;;7.30;4.30;;;;;;;;;;743584;186;806157;-79
2021/06/04 12:53:35;;;;;;;6.13;4.17;;;;;;;;;;745595;186;643245;-79
2021/06/04 12:56:04;;;;;;;6.00;4.17;;;;;;;;;;744926;186;819761;-79
2021/06/04 12:58:32;;;;;;;5.00;4.00;;;;;;;;;;747235;186;816177;-79
2021/06/04 13:01:04;;;;;;;5.30;3.80;;;;;;;;;;747734;186;920011;-80
2021/06/04 13:03:30;;;;;;;7.03;4.70;;;;;;;;;;742798;186;886954;-80
2021/06/04 13:05:56;;;;;;;8.10;4.27;;;;;;;;;;740021;186;963742;-80
2021/06/04 13:08:22;;;;;;;9.13;4.03;;;;;;;;;;740546;186;856906;-79
2021/06/04 13:10:50;;;;;;;5.90;4.53;;;;;;;;;;743460;186;644271;-79
2021/06/04 13:13:18;;;;;;;7.80;4.00;;;;;;;;;;741195;186;767324;-80
2021/06/04 13:15:43;;;;;;;8.00;4.57;;;;;;;;;;749417;186;815943;-79
2021/06/04 13:18:10;;;;;;;4.27;3.67;;;;;;;;;;744891;186;830025;-79
2021/06/04 13:20:36;;;;;;;5.40;4.33;;;;;;;;;;742511;186;767307;-79
2021/06/04 13:23:08;;;;;;;10.53;4.30;;;;;;;;;;744813;187;862732;-80
2021/06/04 13:25:34;;;;;;;7.20;4.00;;;;;;;;;;750574;187;620191;-80
2021/06/04 13:28:05;;;;;;;6.30;4.00;;;;;;;;;;741391;187;992020;-79
2021/06/04 13:30:31;;;;;;;7.65;4.45;;;;;;;;;;745268;187;919620;-79
2021/06/04 13:33:00;;;;;;;6.87;4.30;;;;;;;;;;743749;187;1078776;-79
2021/06/04 13:35:25;;;;;;;5.97;4.20;;;;;;;;;;738045;187;670194;-79
2021/06/04 13:37:52;;;;;;;11.40;4.93;;;;;;;;;;741613;187;916557;-78
2021/06/04 13:40:17;;;;;;;9.80;4.70;;;;;;;;;;740664;187;761745;-79
2021/06/04 13:42:42;;;;;;;7.83;4.83;;;;;;;;;;755604;187;711563;-79
2021/06/04 13:45:09;;;;;;;6.07;3.93;;;;;;;;;;745152;187;812448;-80
2021/06/04 13:47:37;;;;;;;5.63;4.70;;;;;;;;;;746266;187;859346;-81
2021/06/04 13:50:09;;;;;;;5.20;4.40;;;;;;;;;;752620;187;633797;-80
2021/06/04 13:52:35;;;;;;;4.80;4.10;;;;;;;;;;746625;187;624162;-80
2021/06/04 13:55:02;;;;;;;7.90;4.27;;;;;;;;;;746408;187;671879;-80
2021/06/04 13:57:30;;;;;;;5.07;4.57;;;;;;;;;;746897;186;647858;-79
2021/06/04 14:00:01;;;;;;;5.20;4.70;;;;;;;;;;746923;186;711137;-79
2021/06/04 14:02:27;;;;;;;4.73;4.17;;;;;;;;;;745345;186;656537;-80
2021/06/04 14:04:54;;;;;;;5.93;4.13;;;;;;;;;;748458;186;626281;-79
2021/06/04 14:07:37;;;;;;;11.00;4.23;;;;;;;;;;747939;186;631043;-79
2021/06/04 14:10:03;;;;;;;9.83;4.37;;;;;;;;;;746375;186;1029573;-79
2021/06/04 14:12:29;;;;;;;6.90;4.87;;;;;;;;;;745350;186;624858;-80
2021/06/04 14:14:57;;;;;;;16.97;4.60;;;;;;;;;;748432;186;692622;-79
2021/06/04 14:17:26;;;;;;;10.17;4.70;;;;;;;;;;748598;186;890483;-80
2021/06/04 14:19:54;;;;;;;5.80;4.70;;;;;;;;;;742984;186;626486;-81